createdAt,value
2018-09-05T00:02:16.714Z,12.63
2018-09-05T00:04:44.921Z,12.67
2018-09-05T00:07:13.191Z,12.40
2018-09-05T00:09:41.427Z,12.70
2018-09-05T00:12:09.655Z,12.73
2018-09-05T00:14:37.908Z,12.70
2018-09-05T00:17:06.305Z,12.93
2018-09-05T00:19:34.520Z,13.70
2018-09-05T00:22:02.744Z,13.07
2018-09-05T00:24:31.227Z,13.77
2018-09-05T00:26:59.619Z,14.20
2018-09-05T00:29:27.852Z,13.53
2018-09-05T00:31:56.044Z,13.83
2018-09-05T00:34:24.588Z,13.40
2018-09-05T00:36:52.808Z,13.47
2018-09-05T00:39:21.016Z,13.37
2018-09-05T00:41:49.492Z,12.97
2018-09-05T00:44:17.718Z,13.23
2018-09-05T00:46:46.335Z,13.83
2018-09-05T00:49:14.553Z,12.83
2018-09-05T00:51:42.750Z,14.03
2018-09-05T00:54:11.133Z,14.47
2018-09-05T00:56:39.331Z,14.17
2018-09-05T00:59:07.769Z,13.90
2018-09-05T01:01:35.962Z,13.70
2018-09-05T01:04:04.168Z,13.30
2018-09-05T01:06:32.862Z,13.90
2018-09-05T01:09:01.059Z,12.63
2018-09-05T01:11:29.652Z,12.43
2018-09-05T01:13:58.340Z,13.03
2018-09-05T01:16:26.540Z,15.40
2018-09-05T01:18:54.920Z,14.90
2018-09-05T01:21:23.107Z,13.77
2018-09-05T01:23:51.324Z,14.10
2018-09-05T01:26:19.835Z,13.67
2018-09-05T01:29:19.516Z,13.33
2018-09-05T01:31:47.885Z,14.70
2018-09-05T01:34:16.087Z,14.93
2018-09-05T01:36:44.292Z,13.93
2018-09-05T01:39:12.632Z,13.63
2018-09-05T01:41:40.860Z,14.23
2018-09-05T01:44:09.375Z,14.60
2018-09-05T01:46:37.600Z,14.60
2018-09-05T01:49:06.040Z,14.97
2018-09-05T01:51:34.715Z,14.93
2018-09-05T01:54:03.151Z,15.07
2018-09-05T01:56:31.367Z,14.47
2018-09-05T01:58:59.881Z,15.73
2018-09-05T02:01:28.064Z,15.63
2018-09-05T02:03:56.595Z,16.70
2018-09-05T02:06:24.834Z,17.13
2018-09-05T02:08:53.024Z,17.33
2018-09-05T02:11:21.458Z,19.10
2018-09-05T02:13:50.276Z,18.47
2018-09-05T02:16:18.767Z,17.27
2018-09-05T02:18:47.213Z,19.00
2018-09-05T02:21:15.388Z,19.60
2018-09-05T02:23:43.812Z,18.17
2018-09-05T02:26:12.004Z,18.47
2018-09-05T02:28:40.204Z,17.43
2018-09-05T02:31:08.769Z,16.70
2018-09-05T02:33:36.967Z,18.17
2018-09-05T02:36:05.461Z,17.77
2018-09-05T02:38:33.641Z,16.17
2018-09-05T02:41:01.836Z,15.37
2018-09-05T02:43:35.800Z,16.53
2018-09-05T02:46:03.991Z,15.33
2018-09-05T02:48:32.438Z,16.00
2018-09-05T02:51:00.637Z,13.97
2018-09-05T02:53:29.012Z,14.80
2018-09-05T02:56:02.688Z,15.50
2018-09-05T02:58:32.489Z,15.00
2018-09-05T03:01:00.717Z,16.00
2018-09-05T03:03:29.172Z,16.47
2018-09-05T03:05:57.936Z,15.47
2018-09-05T03:08:26.164Z,16.17
2018-09-05T03:10:54.364Z,16.13
2018-09-05T03:13:23.253Z,16.67
2018-09-05T03:15:51.800Z,17.27
2018-09-05T03:18:20.091Z,16.23
2018-09-05T03:20:48.471Z,17.23
2018-09-05T03:23:16.668Z,16.73
2018-09-05T03:25:45.160Z,17.03
2018-09-05T03:28:13.364Z,17.33
2018-09-05T03:30:41.552Z,16.60
2018-09-05T03:33:10.081Z,16.97
2018-09-05T03:35:38.225Z,17.10
2018-09-05T03:38:06.421Z,18.30
2018-09-05T03:40:34.763Z,16.93
2018-09-05T03:43:02.964Z,18.20
2018-09-05T03:45:31.480Z,17.00
2018-09-05T03:47:59.673Z,17.47
2018-09-05T03:50:27.929Z,16.77
2018-09-05T03:52:56.523Z,17.40
2018-09-05T03:55:24.739Z,17.30
2018-09-05T03:57:53.002Z,16.43
2018-09-05T04:00:21.340Z,16.60
2018-09-05T04:02:49.532Z,16.20
2018-09-05T04:05:17.988Z,16.93
2018-09-05T04:07:46.264Z,18.20
2018-09-05T04:10:14.467Z,16.27
2018-09-05T04:12:43.056Z,16.83
2018-09-05T04:15:11.899Z,17.47
2018-09-05T04:17:40.760Z,17.20
2018-09-05T04:20:09.752Z,17.07
2018-09-05T04:22:37.944Z,17.90
2018-09-05T04:25:06.455Z,16.90
2018-09-05T04:27:34.676Z,18.53
2018-09-05T04:30:03.136Z,16.67
2018-09-05T04:32:31.323Z,18.37
2018-09-05T04:34:59.535Z,18.07
2018-09-05T04:37:28.200Z,16.27
2018-09-05T04:39:56.448Z,16.93
2018-09-05T04:42:24.655Z,16.27
2018-09-05T04:44:53.064Z,16.93
2018-09-05T04:47:21.276Z,15.67
2018-09-05T04:49:49.651Z,15.50
2018-09-05T04:52:17.844Z,16.27
2018-09-05T04:54:46.056Z,17.10
2018-09-05T04:57:14.509Z,15.87
2018-09-05T04:59:42.740Z,15.87
2018-09-05T05:02:10.936Z,19.83
2018-09-05T05:04:39.380Z,18.17
2018-09-05T05:07:07.582Z,16.57
2018-09-05T05:09:35.776Z,17.30
2018-09-05T05:12:04.241Z,17.87
2018-09-05T05:14:32.444Z,17.63
2018-09-05T05:17:00.668Z,16.30
2018-09-05T05:19:29.046Z,15.77
2018-09-05T05:21:57.382Z,16.50
2018-09-05T05:24:25.585Z,16.87
2018-09-05T05:26:53.801Z,17.53
2018-09-05T05:29:22.016Z,18.47
2018-09-05T05:31:50.232Z,18.40
2018-09-05T05:34:18.824Z,18.30
2018-09-05T05:36:47.068Z,17.37
2018-09-05T05:39:15.272Z,18.70
2018-09-05T05:41:43.500Z,17.63
2018-09-05T05:44:11.699Z,18.30
2018-09-05T05:46:39.964Z,19.53
2018-09-05T05:49:08.148Z,17.93
2018-09-05T05:51:36.360Z,17.77
2018-09-05T05:54:04.600Z,17.57
2018-09-05T05:56:32.888Z,17.23
2018-09-05T05:59:01.128Z,18.30
2018-09-05T06:01:29.382Z,17.43
2018-09-05T06:03:57.604Z,17.87
2018-09-05T06:06:26.006Z,17.93
2018-09-05T06:08:54.179Z,17.87
2018-09-05T06:11:22.405Z,17.43
2018-09-05T06:13:50.695Z,17.03
2018-09-05T06:16:18.946Z,17.43
2018-09-05T06:18:47.164Z,18.63
2018-09-05T06:21:15.404Z,18.30
2018-09-05T06:23:43.632Z,18.47
2018-09-05T06:26:11.849Z,19.93
2018-09-05T06:28:40.083Z,18.97
2018-09-05T06:31:08.434Z,18.00
2018-09-05T06:33:36.522Z,16.67
2018-09-05T06:36:04.768Z,16.57
2018-09-05T06:38:32.960Z,16.93
2018-09-05T06:41:01.187Z,16.23
2018-09-05T06:43:29.382Z,17.83
2018-09-05T06:45:57.610Z,15.73
2018-09-05T06:48:25.817Z,15.90
2018-09-05T06:50:59.576Z,16.80
2018-09-05T06:53:27.792Z,17.87
2018-09-05T06:55:56.029Z,19.27
2018-09-05T06:58:24.242Z,17.67
2018-09-05T07:00:52.463Z,19.83
2018-09-05T07:03:21.199Z,17.90
2018-09-05T07:05:49.482Z,18.40
2018-09-05T07:08:17.692Z,19.53
2018-09-05T07:10:46.024Z,19.60
2018-09-05T07:13:14.288Z,18.33
2018-09-05T07:15:42.548Z,19.00
2018-09-05T07:18:10.761Z,18.63
2018-09-05T07:20:38.980Z,18.30
2018-09-05T07:23:08.054Z,19.43
2018-09-05T07:25:36.276Z,18.93
2018-09-05T07:28:04.906Z,19.27
2018-09-05T07:30:33.211Z,19.33
2018-09-05T07:33:01.340Z,18.77
2018-09-05T07:35:30.236Z,19.20
2018-09-05T07:37:58.597Z,20.17
2018-09-05T07:40:26.841Z,18.93
2018-09-05T07:42:55.064Z,18.87
2018-09-05T07:45:23.292Z,18.40
2018-09-05T07:47:51.499Z,18.77
2018-09-05T07:50:19.737Z,19.47
2018-09-05T07:52:47.975Z,19.30
2018-09-05T07:55:16.236Z,19.80
2018-09-05T07:57:44.502Z,18.33
2018-09-05T08:00:12.725Z,18.37
2018-09-05T08:02:41.012Z,18.13
2018-09-05T08:05:09.212Z,18.53
2018-09-05T08:07:37.448Z,18.10
2018-09-05T08:10:05.712Z,18.67
2018-09-05T08:12:33.987Z,17.40
2018-09-05T08:15:02.248Z,17.20
2018-09-05T08:17:30.498Z,17.10
2018-09-05T08:19:58.871Z,17.37
2018-09-05T08:22:27.124Z,16.03
2018-09-05T08:24:55.362Z,17.00
2018-09-05T08:27:24.127Z,17.20
2018-09-05T08:29:53.572Z,15.77
2018-09-05T08:32:22.020Z,17.43
2018-09-05T08:34:50.452Z,16.43
2018-09-05T08:37:18.872Z,17.27
2018-09-05T08:39:46.904Z,15.43
2018-09-05T08:42:15.193Z,16.50
2018-09-05T08:44:43.541Z,18.80
2018-09-05T08:47:11.850Z,18.53
2018-09-05T08:49:40.066Z,19.10
2018-09-05T08:52:08.289Z,17.47
2018-09-05T08:54:36.538Z,16.70
2018-09-05T08:57:04.829Z,16.80
2018-09-05T08:59:33.118Z,17.57
2018-09-05T09:02:01.411Z,18.00
2018-09-05T09:04:29.668Z,18.40
2018-09-05T09:06:57.944Z,18.63
2018-09-05T09:09:26.152Z,19.23
2018-09-05T09:11:54.362Z,16.63
2018-09-05T09:14:22.605Z,18.13
2018-09-05T09:16:50.820Z,18.23
2018-09-05T09:19:19.064Z,19.13
2018-09-05T09:21:47.280Z,19.17
2018-09-05T09:24:15.531Z,16.77
2018-09-05T09:26:43.788Z,16.00
2018-09-05T09:29:12.012Z,15.80
2018-09-05T09:31:40.223Z,16.73
2018-09-05T09:34:08.508Z,16.57
2018-09-05T09:36:36.727Z,17.33
2018-09-05T09:39:07.593Z,18.93
2018-09-05T09:41:35.815Z,16.53
2018-09-05T09:44:04.011Z,15.53
2018-09-05T09:46:32.345Z,16.37
2018-09-05T09:49:00.555Z,14.83
2018-09-05T09:51:28.768Z,16.83
2018-09-05T09:53:56.969Z,16.60
2018-09-05T09:56:25.221Z,15.03
2018-09-05T09:58:53.423Z,14.53
2018-09-05T10:01:27.022Z,14.00
2018-09-05T10:04:00.725Z,14.60
2018-09-05T10:06:34.399Z,14.43
2018-09-05T10:09:07.880Z,15.23
2018-09-05T10:11:41.456Z,14.17
2018-09-05T10:14:15.974Z,14.10
2018-09-05T10:16:49.697Z,14.07
2018-09-05T10:19:17.935Z,13.80
2018-09-05T10:21:46.151Z,13.60
2018-09-05T10:24:14.388Z,14.57
2018-09-05T10:26:42.936Z,14.80
2018-09-05T10:29:11.132Z,14.13
2018-09-05T10:31:39.355Z,14.67
2018-09-05T10:34:08.063Z,14.90
2018-09-05T10:36:36.279Z,14.23
2018-09-05T10:39:07.485Z,15.33
2018-09-05T10:41:35.708Z,14.33
2018-09-05T10:44:03.924Z,14.63
2018-09-05T10:46:32.611Z,15.80
2018-09-05T10:49:00.821Z,16.00
2018-09-05T10:51:34.785Z,14.63
2018-09-05T10:54:02.996Z,15.40
2018-09-05T10:56:31.399Z,14.47
2018-09-05T10:58:59.782Z,15.90
2018-09-05T11:01:28.057Z,14.53
2018-09-05T11:03:56.465Z,15.07
2018-09-05T11:06:24.846Z,13.90
2018-09-05T11:08:53.050Z,14.73
2018-09-05T11:11:21.421Z,15.77
2018-09-05T11:13:49.640Z,14.33
2018-09-05T11:16:17.935Z,14.57
2018-09-05T11:18:46.371Z,15.40
2018-09-05T11:21:15.298Z,14.10
2018-09-05T11:23:43.476Z,14.10
2018-09-05T11:26:11.835Z,13.20
2018-09-05T11:28:40.072Z,12.80
2018-09-05T11:31:08.518Z,13.87
2018-09-05T11:33:36.864Z,13.87
2018-09-05T11:36:05.094Z,14.93
2018-09-05T11:38:33.907Z,13.87
2018-09-05T11:41:02.131Z,14.03
2018-09-05T11:43:30.340Z,13.37
2018-09-05T11:45:58.782Z,13.00
2018-09-05T11:48:26.985Z,13.83
2018-09-05T11:50:56.223Z,12.23
2018-09-05T11:53:24.677Z,12.90
2018-09-05T11:55:52.902Z,13.73
2018-09-05T11:58:21.860Z,11.70
2018-09-05T12:00:50.063Z,11.57
2018-09-05T12:03:18.349Z,11.07
2018-09-05T12:05:46.952Z,11.53
2018-09-05T12:08:15.151Z,12.03
2018-09-05T12:10:43.551Z,12.20
2018-09-05T12:13:11.957Z,12.20
2018-09-05T12:15:40.234Z,12.00
2018-09-05T12:18:08.822Z,12.87
2018-09-05T12:20:37.047Z,11.83
2018-09-05T12:23:06.066Z,11.67
2018-09-05T12:25:34.421Z,11.90
2018-09-05T12:28:02.648Z,11.97
2018-09-05T12:30:31.000Z,11.87
2018-09-05T12:32:59.191Z,11.07
2018-09-05T12:35:27.405Z,11.63
2018-09-05T12:37:55.920Z,12.60
2018-09-05T12:40:24.208Z,11.40
2018-09-05T12:42:52.404Z,11.43
2018-09-05T12:45:20.919Z,11.70
2018-09-05T12:47:49.140Z,11.57
2018-09-05T12:50:17.568Z,11.83
2018-09-05T12:52:45.760Z,11.22
2018-09-05T12:55:13.983Z,11.73
2018-09-05T12:57:42.572Z,11.33
2018-09-05T13:00:10.800Z,10.87
2018-09-05T13:02:39.047Z,10.70
2018-09-05T13:05:07.585Z,10.72
2018-09-05T13:07:35.835Z,10.45
2018-09-05T13:10:04.124Z,11.48
2018-09-05T13:12:32.657Z,10.58
2018-09-05T13:15:00.869Z,10.60
2018-09-05T13:17:29.095Z,10.35
2018-09-05T13:19:57.552Z,10.28
2018-09-05T13:22:25.872Z,10.32
2018-09-05T13:24:55.341Z,10.08
2018-09-05T13:27:23.559Z,11.45
2018-09-05T13:29:51.804Z,10.20
2018-09-05T13:32:20.220Z,10.05
2018-09-05T13:34:48.447Z,10.35
2018-09-05T13:37:16.664Z,8.93
2018-09-05T13:39:45.296Z,10.15
2018-09-05T13:42:13.572Z,11.12
2018-09-05T13:44:41.877Z,10.75
2018-09-05T13:47:10.454Z,9.53
2018-09-05T13:49:38.664Z,11.50
2018-09-05T13:52:06.980Z,9.95
2018-09-05T13:54:36.632Z,11.60
2018-09-05T13:57:04.916Z,10.72
2018-09-05T13:59:33.511Z,9.60
2018-09-05T14:02:01.742Z,10.05
2018-09-05T14:04:30.078Z,10.00
2018-09-05T14:06:58.315Z,10.45
2018-09-05T14:09:26.572Z,10.65
2018-09-05T14:11:54.864Z,9.70
2018-09-05T14:14:23.088Z,10.15
2018-09-05T14:16:51.332Z,8.85
2018-09-05T14:19:19.577Z,9.95
2018-09-05T14:21:47.819Z,10.40
2018-09-05T14:24:16.055Z,10.70
2018-09-05T14:26:44.324Z,11.12
2018-09-05T14:29:12.547Z,9.98
2018-09-05T14:31:40.763Z,9.80
2018-09-05T14:34:08.951Z,10.48
2018-09-05T14:36:37.195Z,9.43
2018-09-05T14:39:08.512Z,11.05
2018-09-05T14:41:36.760Z,10.18
2018-09-05T14:44:05.148Z,10.28
2018-09-05T14:46:33.567Z,10.32
2018-09-05T14:49:01.832Z,9.70
2018-09-05T14:51:30.100Z,9.75
2018-09-05T14:53:58.478Z,9.40
2018-09-05T14:56:26.671Z,10.68
2018-09-05T14:58:54.899Z,9.98
2018-09-05T15:01:23.156Z,9.75
2018-09-05T15:03:51.629Z,9.55
2018-09-05T15:06:19.931Z,9.10
2018-09-05T15:08:48.284Z,9.58
2018-09-05T15:11:16.556Z,9.23
2018-09-05T15:13:44.757Z,9.18
2018-09-05T15:16:13.334Z,9.45
2018-09-05T15:18:41.561Z,9.35
2018-09-05T15:21:09.896Z,9.25
2018-09-05T15:23:38.160Z,8.85
2018-09-05T15:26:06.392Z,9.80
2018-09-05T15:28:34.644Z,9.20
2018-09-05T15:31:02.912Z,9.73
2018-09-05T15:33:31.175Z,10.20
2018-09-05T15:35:59.497Z,9.33
2018-09-05T15:38:27.768Z,9.25
2018-09-05T15:40:56.086Z,8.98
2018-09-05T15:43:24.716Z,9.83
2018-09-05T15:45:52.948Z,9.60
2018-09-05T15:48:21.352Z,9.35
2018-09-05T15:50:49.613Z,9.50
2018-09-05T15:53:17.844Z,10.72
2018-09-05T15:55:46.153Z,9.60
2018-09-05T15:58:14.428Z,10.50
2018-09-05T16:00:42.736Z,10.72
2018-09-05T16:03:11.011Z,10.72
2018-09-05T16:05:39.212Z,9.20
2018-09-05T16:08:07.844Z,9.15
2018-09-05T16:10:36.136Z,8.95
2018-09-05T16:13:04.352Z,9.75
2018-09-05T16:15:32.768Z,9.95
2018-09-05T16:18:00.870Z,10.28
2018-09-05T16:20:29.135Z,10.48
2018-09-05T16:22:57.535Z,10.00
2018-09-05T16:25:25.770Z,10.13
2018-09-05T16:27:54.005Z,9.70
2018-09-05T16:30:22.275Z,10.03
2018-09-05T16:32:50.528Z,9.50
2018-09-05T16:35:18.740Z,8.90
2018-09-05T16:37:46.995Z,9.30
2018-09-05T16:40:15.204Z,9.10
2018-09-05T16:42:43.484Z,9.33
2018-09-05T16:45:11.735Z,9.73
2018-09-05T16:47:39.928Z,9.50
2018-09-05T16:50:08.182Z,9.97
2018-09-05T16:52:36.440Z,9.70
2018-09-05T16:55:04.683Z,9.60
2018-09-05T16:57:32.908Z,9.87
2018-09-05T17:00:01.136Z,9.70
2018-09-05T17:02:29.395Z,9.90
2018-09-05T17:04:57.629Z,9.73
2018-09-05T17:07:25.852Z,9.87
2018-09-05T17:09:54.223Z,10.33
2018-09-05T17:12:22.372Z,10.93
2018-09-05T17:14:50.623Z,10.17
2018-09-05T17:17:18.953Z,10.33
2018-09-05T17:19:47.132Z,10.33
2018-09-05T17:22:15.396Z,9.73
2018-09-05T17:24:43.628Z,10.80
2018-09-05T17:27:11.863Z,9.87
2018-09-05T17:29:40.115Z,10.90
2018-09-05T17:32:08.400Z,10.60
2018-09-05T17:34:37.656Z,10.23
2018-09-05T17:37:06.122Z,9.70
2018-09-05T17:39:34.419Z,11.03
2018-09-05T17:42:02.684Z,9.60
2018-09-05T17:44:30.916Z,10.30
2018-09-05T17:46:59.136Z,10.43
2018-09-05T17:49:27.343Z,9.93
2018-09-05T17:51:55.596Z,10.97
2018-09-05T17:54:23.824Z,10.07
2018-09-05T17:56:52.078Z,10.37
2018-09-05T17:59:20.284Z,10.80
2018-09-05T18:01:48.529Z,9.70
2018-09-05T18:04:16.744Z,11.70
2018-09-05T18:06:44.996Z,11.17
2018-09-05T18:09:13.228Z,10.70
2018-09-05T18:11:41.562Z,11.17
2018-09-05T18:14:09.842Z,10.53
2018-09-05T18:16:38.129Z,11.00
2018-09-05T18:19:06.327Z,10.03
2018-09-05T18:21:34.540Z,10.13
2018-09-05T18:24:02.808Z,11.40
2018-09-05T18:26:31.182Z,10.53
2018-09-05T18:28:59.408Z,11.33
2018-09-05T18:31:27.648Z,11.50
2018-09-05T18:33:55.903Z,12.40
2018-09-05T18:36:24.131Z,11.10
2018-09-05T18:38:52.383Z,10.60
2018-09-05T18:41:20.628Z,10.63
2018-09-05T18:43:48.839Z,11.27
2018-09-05T18:46:17.068Z,11.00
2018-09-05T18:48:45.304Z,11.30
2018-09-05T18:51:13.521Z,11.13
2018-09-05T18:53:41.785Z,12.03
2018-09-05T18:56:09.997Z,10.97
2018-09-05T18:58:38.218Z,10.90
2018-09-05T19:01:06.516Z,11.90
2018-09-05T19:03:34.732Z,11.13
2018-09-05T19:06:02.975Z,12.03
2018-09-05T19:08:31.264Z,11.20
2018-09-05T19:10:59.491Z,11.37
2018-09-05T19:13:27.700Z,10.93
2018-09-05T19:15:55.988Z,12.50
2018-09-05T19:18:24.228Z,13.53
2018-09-05T19:20:52.489Z,11.73
2018-09-05T19:23:20.704Z,11.33
2018-09-05T19:25:48.929Z,11.70
2018-09-05T19:28:17.177Z,11.23
2018-09-05T19:30:45.367Z,12.47
2018-09-05T19:33:13.615Z,12.70
2018-09-05T19:35:41.839Z,13.73
2018-09-05T19:38:10.027Z,11.40
2018-09-05T19:40:38.274Z,12.37
2018-09-05T19:43:06.601Z,12.40
2018-09-05T19:45:34.798Z,12.27
2018-09-05T19:48:03.116Z,13.43
2018-09-05T19:50:31.340Z,12.67
2018-09-05T19:52:59.538Z,13.33
2018-09-05T19:55:27.755Z,13.47
2018-09-05T19:57:55.979Z,13.07
2018-09-05T20:00:24.220Z,13.70
2018-09-05T20:02:52.445Z,14.37
2018-09-05T20:05:20.720Z,14.03
2018-09-05T20:07:48.916Z,13.50
2018-09-05T20:10:17.204Z,13.60
2018-09-05T20:12:45.460Z,13.63
2018-09-05T20:15:13.796Z,13.50
2018-09-05T20:17:42.021Z,14.80
2018-09-05T20:20:10.236Z,14.73
2018-09-05T20:22:38.504Z,14.00
2018-09-05T20:25:06.726Z,14.47
2018-09-05T20:27:34.952Z,14.43
2018-09-05T20:30:03.270Z,14.80
2018-09-05T20:32:31.661Z,15.30
2018-09-05T20:34:59.952Z,14.87
2018-09-05T20:37:28.148Z,15.50
2018-09-05T20:39:57.004Z,14.73
2018-09-05T20:42:25.267Z,14.77
2018-09-05T20:44:53.514Z,15.43
2018-09-05T20:47:21.804Z,14.03
2018-09-05T20:49:50.023Z,14.73
2018-09-05T20:52:18.356Z,13.97
2018-09-05T20:54:46.566Z,14.50
2018-09-05T20:57:14.776Z,15.13
2018-09-05T20:59:43.043Z,16.00
2018-09-05T21:02:11.328Z,15.33
2018-09-05T21:04:39.527Z,15.67
2018-09-05T21:07:07.805Z,16.07
2018-09-05T21:09:36.076Z,16.03
2018-09-05T21:12:04.336Z,16.13
2018-09-05T21:14:32.570Z,17.10
2018-09-05T21:17:00.819Z,17.53
2018-09-05T21:19:29.444Z,16.57
2018-09-05T21:21:57.746Z,17.83
2018-09-05T21:24:25.955Z,16.60
2018-09-05T21:26:54.225Z,16.50
2018-09-05T21:29:22.447Z,16.70
2018-09-05T21:31:50.694Z,16.03
2018-09-05T21:34:18.948Z,16.37
2018-09-05T21:36:47.196Z,17.83
2018-09-05T21:39:15.414Z,16.30
2018-09-05T21:41:43.663Z,18.27
2018-09-05T21:44:11.929Z,17.23
2018-09-05T21:46:40.157Z,17.00
2018-09-05T21:49:08.367Z,17.03
2018-09-05T21:51:36.615Z,17.07
2018-09-05T21:54:04.819Z,17.13
2018-09-05T21:56:33.140Z,17.47
2018-09-05T21:59:01.528Z,17.33
2018-09-05T22:01:29.743Z,17.90
2018-09-05T22:03:57.971Z,17.77
2018-09-05T22:06:26.211Z,17.03
2018-09-05T22:08:54.435Z,16.93
2018-09-05T22:11:27.022Z,16.57
2018-09-05T22:13:55.880Z,16.57
2018-09-05T22:16:24.100Z,16.17
2018-09-05T22:18:52.462Z,17.77
2018-09-05T22:21:20.769Z,17.20
2018-09-05T22:23:49.032Z,16.67
2018-09-05T22:26:17.360Z,16.63
2018-09-05T22:28:45.596Z,16.20
2018-09-05T22:31:13.877Z,16.43
2018-09-05T22:33:42.080Z,15.77
2018-09-05T22:36:10.319Z,16.90
2018-09-05T22:38:38.543Z,16.40
2018-09-05T22:41:06.765Z,16.10
2018-09-05T22:43:46.430Z,16.23
2018-09-05T22:46:26.133Z,15.93
2018-09-05T22:53:08.891Z,16.00
2018-09-05T22:56:56.880Z,15.50
2018-09-05T22:59:40.069Z,16.23
2018-09-05T23:04:27.252Z,16.73
2018-09-05T23:07:04.584Z,16.27
2018-09-05T23:09:44.173Z,16.30
2018-09-05T23:12:23.639Z,17.70
2018-09-05T23:15:04.096Z,17.00
2018-09-05T23:19:52.960Z,17.37
2018-09-05T23:22:21.188Z,16.83
2018-09-05T23:24:49.389Z,16.33
2018-09-05T23:27:17.609Z,17.03
2018-09-05T23:29:45.820Z,16.50
2018-09-05T23:32:14.029Z,17.10
2018-09-05T23:34:42.293Z,17.10
2018-09-05T23:37:10.534Z,16.50
2018-09-05T23:39:38.756Z,17.70
2018-09-05T23:42:06.968Z,16.53
2018-09-05T23:44:35.228Z,17.70
2018-09-05T23:47:03.456Z,17.90
2018-09-05T23:49:31.690Z,17.57
2018-09-05T23:51:59.956Z,17.53
2018-09-05T23:54:28.228Z,18.27
2018-09-05T23:56:56.448Z,17.53
2018-09-05T23:59:24.701Z,18.40
